createdAt,value
2022-12-23T00:00:58.259Z,100053.19
2022-12-23T00:03:32.716Z,100045.28
2022-12-23T00:06:15.773Z,100043.50
2022-12-23T00:08:48.470Z,100040.72
2022-12-23T00:11:21.238Z,100040.97
2022-12-23T00:14:20.104Z,100037.44
2022-12-23T00:16:53.984Z,100046.03
2022-12-23T00:19:26.557Z,100046.03
2022-12-23T00:21:59.079Z,100057.00
2022-12-23T00:24:31.765Z,100058.75
2022-12-23T00:27:04.777Z,100062.06
2022-12-23T00:29:38.591Z,100068.41
2022-12-23T00:32:11.641Z,100064.34
2022-12-23T00:34:44.484Z,100075.78
2022-12-23T00:37:17.054Z,100066.88
2022-12-23T00:40:08.180Z,100067.88
2022-12-23T00:42:56.230Z,100067.88
2022-12-23T00:45:29.053Z,100077.03
2022-12-23T00:48:21.411Z,100074.00
2022-12-23T00:50:54.016Z,100079.59
2022-12-23T00:53:27.126Z,100069.63
2022-12-23T00:55:59.655Z,100090.78
2022-12-23T00:58:32.281Z,100094.31
2022-12-23T01:01:23.718Z,100091.78
2022-12-23T01:04:14.975Z,100101.44
2022-12-23T01:06:47.868Z,100109.34
2022-12-23T01:09:20.446Z,100098.38
2022-12-23T01:11:53.747Z,100115.41
2022-12-23T01:14:27.739Z,100106.28
2022-12-23T01:17:00.658Z,100110.84
2022-12-23T01:19:33.444Z,100109.28
2022-12-23T01:22:05.986Z,100111.34
2022-12-23T01:24:38.594Z,100113.63
2022-12-23T01:27:11.262Z,100108.03
2022-12-23T01:29:43.787Z,100113.63
2022-12-23T01:32:16.356Z,100114.88
2022-12-23T01:34:48.923Z,100107.50
2022-12-23T01:37:21.448Z,100103.91
2022-12-23T01:39:54.201Z,100116.91
2022-12-23T01:42:45.156Z,100110.56
2022-12-23T01:45:29.745Z,100119.22
2022-12-23T01:48:10.687Z,100120.22
2022-12-23T01:50:59.979Z,100136.53
2022-12-23T01:53:43.990Z,100134.47
2022-12-23T01:56:36.815Z,100132.19
2022-12-23T01:59:35.012Z,100142.84
2022-12-23T02:02:26.863Z,100139.56
2022-12-23T02:05:00.786Z,100138.53
2022-12-23T02:07:55.818Z,100152.72
2022-12-23T02:10:47.841Z,100152.25
2022-12-23T02:14:04.511Z,100164.22
2022-12-23T02:16:50.022Z,100160.91
2022-12-23T02:19:45.177Z,100168.53
2022-12-23T02:22:45.478Z,100160.16
2022-12-23T02:26:19.856Z,100159.66
2022-12-23T02:29:48.964Z,100161.44
2022-12-23T02:32:45.215Z,100169.09
2022-12-23T02:35:58.674Z,100169.09
2022-12-23T02:38:54.219Z,100166.72
2022-12-23T02:41:51.559Z,100188.13
2022-12-23T02:44:45.729Z,100191.94
2022-12-23T02:47:25.236Z,100201.03
2022-12-23T02:50:09.164Z,100207.88
2022-12-23T02:52:47.432Z,100212.19
2022-12-23T02:55:29.241Z,100210.69
2022-12-23T02:58:08.556Z,100212.94
2022-12-23T03:00:44.274Z,100217.47
2022-12-23T03:03:21.291Z,100219.56
2022-12-23T03:05:55.254Z,100211.88
2022-12-23T03:08:44.128Z,100217.78
2022-12-23T03:11:18.536Z,100215.16
2022-12-23T03:14:30.685Z,100226.50
2022-12-23T03:17:33.587Z,100228.44
2022-12-23T03:20:25.486Z,100221.88
2022-12-23T03:23:37.865Z,100220.31
2022-12-23T03:26:34.989Z,100229.25
2022-12-23T03:29:28.029Z,100222.91
2022-12-23T03:32:05.123Z,100216.44
2022-12-23T03:34:43.981Z,100214.19
2022-12-23T03:37:21.569Z,100208.06
2022-12-23T03:40:14.420Z,100223.63
2022-12-23T03:42:55.001Z,100219.72
2022-12-23T03:45:42.032Z,100217.97
2022-12-23T03:48:36.706Z,100220.56
2022-12-23T03:51:23.099Z,100212.44
2022-12-23T03:54:09.063Z,100205.78
2022-12-23T03:56:52.530Z,100207.50
2022-12-23T03:59:31.509Z,100223.81
2022-12-23T04:02:14.689Z,100203.91
2022-12-23T04:05:11.328Z,100218.03
2022-12-23T04:07:53.319Z,100220.22
2022-12-23T04:10:26.875Z,100221.75
2022-12-23T04:12:59.792Z,100225.53
2022-12-23T04:15:32.663Z,100238.19
2022-12-23T04:18:05.369Z,100241.06
2022-12-23T04:20:38.328Z,100230.28
2022-12-23T04:23:11.008Z,100230.56
2022-12-23T04:25:43.797Z,100242.53
2022-12-23T04:28:18.205Z,100243.78
2022-12-23T04:30:50.885Z,100247.84
2022-12-23T04:33:23.467Z,100250.59
2022-12-23T04:35:55.978Z,100258.25
2022-12-23T04:38:28.781Z,100256.25
2022-12-23T04:41:01.457Z,100262.31
2022-12-23T04:43:34.132Z,100247.78
2022-12-23T04:46:06.835Z,100252.91
2022-12-23T04:48:39.442Z,100248.63
2022-12-23T04:51:11.991Z,100243.25
2022-12-23T04:53:44.651Z,100248.06
2022-12-23T04:56:17.258Z,100244.44
2022-12-23T04:58:49.790Z,100242.69
2022-12-23T05:01:22.405Z,100230.75
2022-12-23T05:03:55.039Z,100233.53
2022-12-23T05:06:27.586Z,100223.66
2022-12-23T05:09:00.285Z,100226.19
2022-12-23T05:11:35.977Z,100228.22
2022-12-23T05:14:13.463Z,100225.72
2022-12-23T05:16:46.196Z,100231.03
2022-12-23T05:19:18.926Z,100239.13
2022-12-23T05:21:51.473Z,100249.06
2022-12-23T05:24:23.971Z,100257.19
2022-12-23T05:27:00.182Z,100254.53
2022-12-23T05:29:33.154Z,100276.22
2022-12-23T05:32:05.950Z,100279.53
2022-12-23T05:34:38.496Z,100286.38
2022-12-23T05:37:11.016Z,100289.16
2022-12-23T05:39:43.553Z,100279.75
2022-12-23T05:42:19.358Z,100286.88
2022-12-23T05:44:51.921Z,100285.06
2022-12-23T05:47:24.497Z,100289.88
2022-12-23T05:49:57.178Z,100292.47
2022-12-23T05:52:29.759Z,100291.69
2022-12-23T05:55:02.315Z,100281.50
2022-12-23T05:57:34.812Z,100275.69
2022-12-23T06:00:08.588Z,100262.66
2022-12-23T06:02:41.967Z,100263.19
2022-12-23T06:05:15.230Z,100274.16
2022-12-23T06:07:47.800Z,100260.94
2022-12-23T06:10:20.549Z,100259.16
2022-12-23T06:12:53.108Z,100252.81
2022-12-23T06:15:25.736Z,100248.69
2022-12-23T06:17:58.432Z,100248.94
2022-12-23T06:20:30.986Z,100250.50
2022-12-23T06:23:03.959Z,100247.69
2022-12-23T06:25:36.648Z,100234.97
2022-12-23T06:28:09.539Z,100242.09
2022-12-23T06:30:42.146Z,100235.25
2022-12-23T06:33:14.789Z,100252.56
2022-12-23T06:35:47.708Z,100248.53
2022-12-23T06:38:20.332Z,100243.91
2022-12-23T06:40:53.031Z,100244.78
2022-12-23T06:43:25.699Z,100255.50
2022-12-23T06:45:58.463Z,100259.34
2022-12-23T06:48:31.089Z,100252.22
2022-12-23T06:51:03.808Z,100270.66
2022-12-23T06:53:36.618Z,100282.91
2022-12-23T06:56:09.277Z,100290.81
2022-12-23T06:58:41.923Z,100284.97
2022-12-23T07:01:14.496Z,100304.91
2022-12-23T07:03:49.611Z,100308.78
2022-12-23T07:06:22.189Z,100315.69
2022-12-23T07:08:55.123Z,100320.53
2022-12-23T07:11:27.907Z,100333.09
2022-12-23T07:14:00.503Z,100347.88
2022-12-23T07:16:33.439Z,100333.16
2022-12-23T07:19:06.058Z,100324.03
2022-12-23T07:21:39.104Z,100317.97
2022-12-23T07:24:11.823Z,100312.13
2022-12-23T07:26:44.522Z,100305.78
2022-12-23T07:29:17.117Z,100313.97
2022-12-23T07:31:49.851Z,100309.47
2022-12-23T07:34:22.560Z,100321.69
2022-12-23T07:36:55.702Z,100314.59
2022-12-23T07:39:28.548Z,100315.88
2022-12-23T07:42:33.592Z,100306.97
2022-12-23T07:44:53.651Z,100306.50
2022-12-23T07:47:26.380Z,100303.97
2022-12-23T07:49:59.095Z,100307.56
2022-12-23T07:52:31.969Z,100307.81
2022-12-23T07:55:05.886Z,100312.41
2022-12-23T07:57:40.039Z,100309.38
2022-12-23T08:00:14.244Z,100324.41
2022-12-23T08:02:47.736Z,100320.88
2022-12-23T08:05:20.642Z,100307.13
2022-12-23T08:07:53.270Z,100301.25
2022-12-23T08:10:25.860Z,100295.66
2022-12-23T08:13:01.100Z,100291.34
2022-12-23T08:15:33.647Z,100280.38
2022-12-23T08:18:06.500Z,100286.50
2022-12-23T08:20:39.109Z,100276.59
2022-12-23T08:23:11.747Z,100282.72
2022-12-23T08:25:45.424Z,100286.53
2022-12-23T08:28:18.103Z,100296.72
2022-12-23T08:30:50.682Z,100298.50
2022-12-23T08:33:23.459Z,100278.88
2022-12-23T08:35:56.197Z,100304.63
2022-12-23T08:38:29.220Z,100303.59
2022-12-23T08:41:02.285Z,100297.75
2022-12-23T08:43:36.134Z,100282.47
2022-12-23T08:46:09.031Z,100290.19
2022-12-23T08:48:48.665Z,100279.47
2022-12-23T08:51:25.096Z,100285.84
2022-12-23T08:54:01.360Z,100276.13
2022-12-23T08:56:39.296Z,100266.47
2022-12-23T08:59:19.487Z,100271.03
2022-12-23T09:01:52.551Z,100268.75
2022-12-23T09:04:25.322Z,100269.00
2022-12-23T09:06:58.045Z,100281.25
2022-12-23T09:09:30.556Z,100257.28
2022-12-23T09:12:03.678Z,100249.13
2022-12-23T09:14:36.550Z,100247.34
2022-12-23T09:17:09.822Z,100237.16
2022-12-23T09:19:45.919Z,100232.53
2022-12-23T09:22:23.059Z,100227.72
2022-12-23T09:25:01.305Z,100225.94
2022-12-23T09:27:37.339Z,100220.56
2022-12-23T09:30:11.052Z,100220.81
2022-12-23T09:32:43.768Z,100219.06
2022-12-23T09:35:16.631Z,100218.25
2022-12-23T09:37:49.166Z,100216.00
2022-12-23T09:40:22.400Z,100211.66
2022-12-23T09:43:06.957Z,100210.63
2022-12-23T09:45:54.591Z,100206.53
2022-12-23T09:48:36.010Z,100199.16
2022-12-23T09:51:12.209Z,100192.00
2022-12-23T09:54:17.126Z,100190.25
2022-12-23T09:56:57.657Z,100178.75
2022-12-23T09:59:48.608Z,100184.88
2022-12-23T10:02:39.925Z,100191.47
2022-12-23T10:05:20.277Z,100195.81
2022-12-23T10:08:02.042Z,100192.25
2022-12-23T10:10:50.956Z,100199.63
2022-12-23T10:13:35.549Z,100208.28
2022-12-23T10:16:34.540Z,100199.38
2022-12-23T10:19:33.514Z,100179.50
2022-12-23T10:22:16.748Z,100177.47
2022-12-23T10:24:50.348Z,100172.13
2022-12-23T10:27:41.058Z,100160.91
2022-12-23T10:30:51.413Z,100148.16
2022-12-23T10:33:24.370Z,100143.84
2022-12-23T10:36:28.041Z,100138.75
2022-12-23T10:39:22.453Z,100128.31
2022-12-23T10:42:24.276Z,100118.63
2022-12-23T10:45:32.979Z,100126.25
2022-12-23T10:48:27.658Z,100128.28
2022-12-23T10:51:02.968Z,100123.97
2022-12-23T10:53:54.347Z,100110.22
2022-12-23T10:56:30.581Z,100108.19
2022-12-23T10:59:03.632Z,100097.97
2022-12-23T11:01:36.428Z,100091.13
2022-12-23T11:04:19.716Z,100093.66
2022-12-23T11:07:18.271Z,100077.34
2022-12-23T11:09:55.541Z,100065.88
2022-12-23T11:12:49.120Z,100049.09
2022-12-23T11:15:29.093Z,100038.13
2022-12-23T11:18:22.083Z,100029.47
2022-12-23T11:21:07.308Z,100024.38
2022-12-23T11:23:39.904Z,100028.47
2022-12-23T11:26:20.426Z,100038.91
2022-12-23T11:29:06.280Z,100032.53
2022-12-23T11:31:42.265Z,100040.69
2022-12-23T11:34:20.169Z,100033.03
2022-12-23T11:37:06.960Z,100012.16
2022-12-23T11:39:46.611Z,99998.41
2022-12-23T11:42:29.721Z,99997.16
2022-12-23T11:45:07.403Z,100001.47
2022-12-23T11:47:41.799Z,99999.97
2022-12-23T11:50:39.596Z,99990.53
2022-12-23T11:53:25.729Z,99980.63
2022-12-23T11:56:06.844Z,99970.19
2022-12-23T11:58:53.578Z,99960.75
2022-12-23T12:01:26.579Z,99951.34
2022-12-23T12:04:09.111Z,99941.16
2022-12-23T12:06:51.179Z,99945.47
2022-12-23T12:09:31.496Z,99924.34
2022-12-23T12:12:15.092Z,99923.09
2022-12-23T12:14:54.445Z,99907.56
2022-12-23T12:17:38.570Z,99889.75
2022-12-23T12:20:28.022Z,99889.47
2022-12-23T12:23:21.366Z,99881.56
2022-12-23T12:26:03.462Z,99867.06
2022-12-23T12:28:44.539Z,99870.63
2022-12-23T12:31:41.162Z,99870.81
2022-12-23T12:34:49.817Z,99870.56
2022-12-23T12:38:02.552Z,99872.09
2022-12-23T12:40:54.701Z,99867.72
2022-12-23T12:43:34.490Z,99857.28
2022-12-23T12:46:50.794Z,99849.81
2022-12-23T12:50:05.482Z,99831.47
2022-12-23T12:52:42.343Z,99820.28
2022-12-23T12:55:34.991Z,99814.63
2022-12-23T12:58:20.297Z,99817.94
2022-12-23T13:01:21.249Z,99809.78
2022-12-23T13:03:53.734Z,99782.78
2022-12-23T13:07:14.046Z,99762.63
2022-12-23T13:10:17.531Z,99738.44
2022-12-23T13:12:58.391Z,99725.69
2022-12-23T13:15:49.355Z,99732.84
2022-12-23T13:18:55.647Z,99731.28
2022-12-23T13:21:44.423Z,99714.47
2022-12-23T13:24:26.440Z,99735.97
2022-12-23T13:27:16.570Z,99729.28
2022-12-23T13:30:15.125Z,99731.50
2022-12-23T13:33:23.096Z,99713.94
2022-12-23T13:36:12.844Z,99716.53
2022-12-23T13:39:08.638Z,99696.97
2022-12-23T13:41:51.159Z,99689.81
2022-12-23T13:44:25.196Z,99687.28
2022-12-23T13:47:09.996Z,99678.66
2022-12-23T13:50:13.379Z,99661.94
2022-12-23T13:53:06.861Z,99648.06
2022-12-23T13:56:26.931Z,99670.94
2022-12-23T13:59:00.263Z,99665.19
2022-12-23T14:01:59.003Z,99669.63
2022-12-23T14:04:57.333Z,99664.22
2022-12-23T14:07:33.661Z,99665.75
2022-12-23T14:10:19.240Z,99657.09
2022-12-23T14:13:01.538Z,99662.47
2022-12-23T14:16:02.634Z,99666.69
2022-12-23T14:18:55.810Z,99655.56
2022-12-23T14:21:43.531Z,99665.50
2022-12-23T14:25:15.871Z,99647.88
2022-12-23T14:28:16.056Z,99651.00
2022-12-23T14:30:49.096Z,99654.09
2022-12-23T14:33:26.571Z,99657.16
2022-12-23T14:36:26.805Z,99654.06
2022-12-23T14:39:11.633Z,99657.88
2022-12-23T14:41:52.659Z,99657.16
2022-12-23T14:44:37.212Z,99652.03
2022-12-23T14:47:36.571Z,99646.16
2022-12-23T14:50:40.840Z,99656.63
2022-12-23T14:53:27.666Z,99645.19
2022-12-23T14:56:09.508Z,99649.03
2022-12-23T14:58:51.189Z,99648.03
2022-12-23T15:01:36.682Z,99651.34
2022-12-23T15:04:40.227Z,99652.41
2022-12-23T15:07:36.392Z,99644.28
2022-12-23T15:10:20.133Z,99652.91
2022-12-23T15:12:59.222Z,99643.53
2022-12-23T15:15:33.545Z,99660.34
2022-12-23T15:18:13.108Z,99650.19
2022-12-23T15:20:58.428Z,99655.00
2022-12-23T15:23:31.336Z,99659.09
2022-12-23T15:26:04.086Z,99658.09
2022-12-23T15:28:41.341Z,99663.22
2022-12-23T15:31:40.618Z,99664.91
2022-12-23T15:34:25.355Z,99657.84
2022-12-23T15:36:59.201Z,99668.31
2022-12-23T15:39:39.333Z,99673.91
2022-12-23T15:42:23.375Z,99670.56
2022-12-23T15:44:56.124Z,99668.56
2022-12-23T15:47:38.544Z,99678.50
2022-12-23T15:50:17.806Z,99687.41
2022-12-23T15:52:54.302Z,99691.75
2022-12-23T15:55:33.266Z,99689.97
2022-12-23T15:58:05.885Z,99692.00
2022-12-23T16:00:49.848Z,99702.19
2022-12-23T16:03:31.724Z,99698.38
2022-12-23T16:06:24.482Z,99706.22
2022-12-23T16:09:17.514Z,99718.19
2022-12-23T16:12:19.092Z,99712.59
2022-12-23T16:15:03.362Z,99723.25
2022-12-23T16:17:37.190Z,99732.16
2022-12-23T16:20:15.781Z,99734.69
2022-12-23T16:22:52.340Z,99727.06
2022-12-23T16:25:31.994Z,99737.25
2022-12-23T16:28:18.023Z,99757.56
2022-12-23T16:30:57.159Z,99752.75
2022-12-23T16:33:37.624Z,99759.84
2022-12-23T16:36:19.965Z,99756.25
2022-12-23T16:39:01.026Z,99766.94
2022-12-23T16:41:34.703Z,99770.75
2022-12-23T16:44:07.333Z,99778.34
2022-12-23T16:46:47.302Z,99780.63
2022-12-23T16:49:27.983Z,99778.84
2022-12-23T16:52:07.312Z,99786.22
2022-12-23T16:54:40.030Z,99781.88
2022-12-23T16:57:12.528Z,99789.25
2022-12-23T16:59:46.908Z,99799.19
2022-12-23T17:02:28.081Z,99798.69
2022-12-23T17:05:01.004Z,99798.91
2022-12-23T17:07:33.519Z,99798.44
2022-12-23T17:10:07.095Z,99800.69
2022-12-23T17:12:40.893Z,99805.28
2022-12-23T17:15:25.250Z,99807.28
2022-12-23T17:17:58.565Z,99824.97
2022-12-23T17:20:31.203Z,99820.03
2022-12-23T17:23:03.967Z,99839.91
2022-12-23T17:25:37.635Z,99833.78
2022-12-23T17:28:11.107Z,99844.50
2022-12-23T17:30:43.723Z,99851.63
2022-12-23T17:33:19.428Z,99844.00
2022-12-23T17:35:51.979Z,99851.94
2022-12-23T17:38:24.936Z,99851.13
2022-12-23T17:40:58.516Z,99858.28
2022-12-23T17:43:31.432Z,99850.16
2022-12-23T17:46:04.083Z,99861.88
2022-12-23T17:48:36.907Z,99866.44
2022-12-23T17:51:20.004Z,99868.72
2022-12-23T17:53:58.707Z,99874.84
2022-12-23T17:56:31.354Z,99874.09
2022-12-23T17:59:04.011Z,99869.00
2022-12-23T18:01:37.129Z,99884.78
2022-12-23T18:04:09.858Z,99869.78
2022-12-23T18:06:42.521Z,99889.91
2022-12-23T18:09:15.263Z,99893.19
2022-12-23T18:11:48.255Z,99887.63
2022-12-23T18:14:31.923Z,99880.50
2022-12-23T18:17:04.481Z,99882.28
2022-12-23T18:19:37.163Z,99885.59
2022-12-23T18:22:24.404Z,99890.41
2022-12-23T18:24:59.589Z,99891.19
2022-12-23T18:27:32.296Z,99895.00
2022-12-23T18:30:05.927Z,99899.09
2022-12-23T18:32:40.880Z,99901.13
2022-12-23T18:35:27.312Z,99907.75
2022-12-23T18:38:00.565Z,99915.91
2022-12-23T18:40:33.420Z,99907.25
2022-12-23T18:43:07.323Z,99922.28
2022-12-23T18:45:42.100Z,99929.69
2022-12-23T18:48:14.768Z,99930.19
2022-12-23T18:50:47.449Z,99935.78
2022-12-23T18:53:25.134Z,99935.28
2022-12-23T18:55:58.115Z,99940.13
2022-12-23T18:58:30.757Z,99947.25
2022-12-23T19:01:03.348Z,99934.25
2022-12-23T19:03:35.979Z,99950.53
2022-12-23T19:06:12.758Z,99941.41
2022-12-23T19:08:45.323Z,99947.25
2022-12-23T19:11:21.267Z,99945.72
2022-12-23T19:13:53.754Z,99948.53
2022-12-23T19:16:26.266Z,99938.34
2022-12-23T19:18:59.226Z,99944.97
2022-12-23T19:21:31.995Z,99943.69
2022-12-23T19:24:05.041Z,99945.50
2022-12-23T19:26:37.553Z,99956.16
2022-12-23T19:29:10.160Z,99963.81
2022-12-23T19:31:42.815Z,99957.44
2022-12-23T19:34:16.110Z,99946.00
2022-12-23T19:36:48.892Z,99954.91
2022-12-23T19:39:24.113Z,99967.88
2022-12-23T19:41:56.795Z,99969.38
2022-12-23T19:44:29.355Z,99972.72
2022-12-23T19:47:03.928Z,99980.38
2022-12-23T19:49:36.685Z,99980.38
2022-12-23T19:52:09.212Z,99992.56
2022-12-23T19:54:41.898Z,100013.94
2022-12-23T19:57:14.556Z,100005.03
2022-12-23T19:59:47.284Z,99997.91
2022-12-23T20:02:20.198Z,100024.63
2022-12-23T20:04:54.783Z,100017.75
2022-12-23T20:07:27.314Z,100028.19
2022-12-23T20:10:00.007Z,100035.84
2022-12-23T20:12:32.812Z,100031.28
2022-12-23T20:15:05.951Z,100030.50
2022-12-23T20:17:38.450Z,100036.59
2022-12-23T20:20:11.192Z,100042.97
2022-12-23T20:22:43.767Z,100057.47
2022-12-23T20:25:16.487Z,100062.59
2022-12-23T20:27:49.055Z,100060.28
2022-12-23T20:30:22.066Z,100067.66
2022-12-23T20:32:55.463Z,100061.81
2022-12-23T20:35:30.923Z,100072.75
2022-12-23T20:38:03.946Z,100091.84
2022-12-23T20:40:36.643Z,100102.84
2022-12-23T20:43:15.075Z,100098.00
2022-12-23T20:45:51.417Z,100098.75
2022-12-23T20:48:28.174Z,100107.91
2022-12-23T20:51:11.771Z,100117.88
2022-12-23T20:53:45.500Z,100129.06
2022-12-23T20:56:20.236Z,100127.28
2022-12-23T20:58:55.924Z,100122.94
2022-12-23T21:01:35.400Z,100145.63
2022-12-23T21:04:17.700Z,100154.53
2022-12-23T21:06:50.231Z,100149.19
2022-12-23T21:09:22.859Z,100149.19
2022-12-23T21:11:55.517Z,100145.59
2022-12-23T21:14:28.374Z,100150.44
2022-12-23T21:17:01.054Z,100163.69
2022-12-23T21:19:34.828Z,100156.81
2022-12-23T21:22:08.302Z,100158.38
2022-12-23T21:24:40.866Z,100167.78
2022-12-23T21:27:13.445Z,100163.19
2022-12-23T21:29:45.987Z,100176.44
2022-12-23T21:32:18.730Z,100170.56
2022-12-23T21:34:51.404Z,100190.19
2022-12-23T21:37:23.940Z,100181.25
2022-12-23T21:39:56.602Z,100188.66
2022-12-23T21:42:29.270Z,100182.28
2022-12-23T21:45:01.943Z,100199.59
2022-12-23T21:47:34.650Z,100211.81
2022-12-23T21:50:08.627Z,100207.00
2022-12-23T21:52:41.246Z,100207.75
2022-12-23T21:55:15.949Z,100209.78
2022-12-23T21:57:48.460Z,100216.91
2022-12-23T22:00:21.327Z,100220.72
2022-12-23T22:02:53.935Z,100218.69
2022-12-23T22:05:27.255Z,100229.88
2022-12-23T22:08:07.818Z,100227.34
2022-12-23T22:10:41.403Z,100238.81
2022-12-23T22:13:13.995Z,100241.34
2022-12-23T22:15:47.679Z,100248.19
2022-12-23T22:18:20.174Z,100252.56
2022-12-23T22:20:52.682Z,100239.78
2022-12-23T22:23:25.201Z,100267.28
2022-12-23T22:25:57.867Z,100278.22
2022-12-23T22:28:33.581Z,100281.28
2022-12-23T22:31:13.185Z,100284.56
2022-12-23T22:33:46.547Z,100278.22
2022-12-23T22:36:19.249Z,100289.19
2022-12-23T22:38:55.651Z,100288.66
2022-12-23T22:41:30.361Z,100291.19
2022-12-23T22:44:03.613Z,100286.34
2022-12-23T22:46:36.419Z,100277.38
2022-12-23T22:49:13.236Z,100298.78
2022-12-23T22:51:46.300Z,100280.44
2022-12-23T22:54:21.045Z,100296.75
2022-12-23T22:56:54.743Z,100280.63
2022-12-23T22:59:28.011Z,100300.56
2022-12-23T23:02:00.688Z,100290.88
2022-12-23T23:04:33.383Z,100307.94
2022-12-23T23:07:08.130Z,100303.34
2022-12-23T23:09:40.659Z,100297.16
2022-12-23T23:12:13.211Z,100318.63
2022-12-23T23:14:55.056Z,100316.50
2022-12-23T23:17:29.546Z,100326.72
2022-12-23T23:20:02.288Z,100315.97
2022-12-23T23:22:34.902Z,100316.50
2022-12-23T23:25:08.193Z,100313.69
2022-12-23T23:27:40.847Z,100330.22
2022-12-23T23:30:13.512Z,100329.72
2022-12-23T23:32:46.193Z,100330.47
2022-12-23T23:35:18.908Z,100338.13
2022-12-23T23:37:51.770Z,100340.91
2022-12-23T23:40:24.605Z,100343.44
2022-12-23T23:42:57.215Z,100344.16
2022-12-23T23:45:30.426Z,100366.81
2022-12-23T23:48:03.181Z,100335.28
2022-12-23T23:50:35.788Z,100354.31
2022-12-23T23:53:11.003Z,100356.63
2022-12-23T23:55:43.767Z,100355.88
2022-12-23T23:58:16.334Z,100359.16
